Time;durP1;ratioP1;P1;durP2;ratioP2;P2;SDS_P1;SDS_P2;PMS_P1;PMS_P2;Temp;Humidity;BMP_temperature;BMP_pressure;BME280_temperature;BME280_humidity;BME280_pressure;Samples;Min_cycle;Max_cycle;Signal;HPM_P1;HPM_P2
2023/04/14 00:01:04;;;;;;;;;3.33;1.00;;;;;;;;5040646;28;45447;-95
2023/04/14 00:03:29;;;;;;;;;1.00;0.00;;;;;;;;5040430;28;45313;-94
2023/04/14 00:05:55;;;;;;;;;1.50;0.00;;;;;;;;5045769;28;45383;-96
2023/04/14 00:08:20;;;;;;;;;1.00;0.00;;;;;;;;5078435;28;46443;-95
2023/04/14 00:10:45;;;;;;;;;1.00;1.00;;;;;;;;5078548;28;45473;-96
2023/04/14 00:13:10;;;;;;;;;0.00;0.00;;;;;;;;5078531;28;45273;-94
2023/04/14 00:15:36;;;;;;;;;1.00;0.00;;;;;;;;5060383;28;45236;-94
2023/04/14 00:18:01;;;;;;;;;0.00;0.00;;;;;;;;5078027;28;46060;-94
2023/04/14 00:20:26;;;;;;;;;0.00;0.00;;;;;;;;5060473;28;45705;-95
2023/04/14 00:22:51;;;;;;;;;0.00;0.00;;;;;;;;5078306;28;45418;-95
2023/04/14 00:25:16;;;;;;;;;0.00;0.00;;;;;;;;5060469;28;45450;-95
2023/04/14 00:27:42;;;;;;;;;0.00;0.00;;;;;;;;5077808;28;46614;-95
2023/04/14 00:30:07;;;;;;;;;0.00;0.00;;;;;;;;5078114;28;45196;-95
2023/04/14 00:32:32;;;;;;;;;1.00;0.00;;;;;;;;5060047;28;45237;-94
2023/04/14 00:34:59;;;;;;;;;0.00;0.00;;;;;;;;5060502;28;45323;-95
2023/04/14 00:37:24;;;;;;;;;0.50;0.00;;;;;;;;5078324;28;45599;-96
2023/04/14 00:39:49;;;;;;;;;3.00;0.00;;;;;;;;5060273;28;45681;-96
2023/04/14 00:42:15;;;;;;;;;0.00;0.00;;;;;;;;5077909;28;45294;-95
2023/04/14 00:44:40;;;;;;;;;1.00;0.00;;;;;;;;5077997;28;45279;-95
2023/04/14 00:47:05;;;;;;;;;0.00;0.00;;;;;;;;5077851;28;46061;-94
2023/04/14 00:49:30;;;;;;;;;0.00;0.00;;;;;;;;5059935;28;45725;-95
2023/04/14 00:51:56;;;;;;;;;0.00;0.00;;;;;;;;5060371;28;45352;-95
2023/04/14 00:54:22;;;;;;;;;2.00;0.00;;;;;;;;5078206;28;45277;-96
2023/04/14 00:56:49;;;;;;;;;3.50;0.00;;;;;;;;5077627;28;45446;-96
2023/04/14 00:59:15;;;;;;;;;0.00;0.00;;;;;;;;5059862;28;45621;-94
2023/04/14 01:01:40;;;;;;;;;0.00;0.00;;;;;;;;5078227;28;45272;-96
2023/04/14 01:04:05;;;;;;;;;0.00;0.00;;;;;;;;5060152;28;45511;-96
2023/04/14 01:06:31;;;;;;;;;0.00;0.00;;;;;;;;5077434;28;45365;-95
2023/04/14 01:08:57;;;;;;;;;0.00;0.00;;;;;;;;5077813;28;45348;-96
2023/04/14 01:11:37;;;;;;;;;0.00;0.00;;;;;;;;5059827;28;45312;-96
2023/04/14 01:14:02;;;;;;;;;0.00;0.00;;;;;;;;5060342;28;45329;-96
2023/04/14 01:16:30;;;;;;;;;0.33;0.33;;;;;;;;5078527;28;46418;-96
2023/04/14 01:19:05;;;;;;;;;2.00;0.00;;;;;;;;5081303;28;45520;-95
2023/04/14 01:21:33;;;;;;;;;0.00;0.00;;;;;;;;5063546;28;45254;-96
2023/04/14 01:24:01;;;;;;;;;1.00;0.00;;;;;;;;5063351;28;45465;-96
2023/04/14 01:26:30;;;;;;;;;0.00;0.00;;;;;;;;5080947;28;45412;-96
2023/04/14 01:28:55;;;;;;;;;0.50;0.00;;;;;;;;5081383;28;45355;-96
2023/04/14 01:31:38;;;;;;;;;1.00;0.00;;;;;;;;5081382;28;45438;-94
2023/04/14 01:34:16;;;;;;;;;1.25;0.50;;;;;;;;5063188;28;45422;-95
2023/04/14 01:36:43;;;;;;;;;0.00;0.00;;;;;;;;5063394;28;47680;-96
2023/04/14 01:39:10;;;;;;;;;1.00;1.00;;;;;;;;5080820;28;45698;-95
2023/04/14 01:41:38;;;;;;;;;3.75;0.75;;;;;;;;5063101;28;45289;-96
2023/04/14 01:44:05;;;;;;;;;0.00;0.00;;;;;;;;5063074;28;45402;-96
2023/04/14 01:46:31;;;;;;;;;0.00;0.00;;;;;;;;5062972;28;47203;-95
2023/04/14 01:48:56;;;;;;;;;0.00;0.00;;;;;;;;5063328;28;46412;-95
2023/04/14 01:51:22;;;;;;;;;0.00;0.00;;;;;;;;5063227;28;45321;-95
2023/04/14 01:53:49;;;;;;;;;0.00;0.00;;;;;;;;5063044;28;45307;-95
2023/04/14 01:56:15;;;;;;;;;0.00;0.00;;;;;;;;5080872;28;45543;-95
2023/04/14 01:58:41;;;;;;;;;0.00;0.00;;;;;;;;5080441;28;45451;-95
2023/04/14 02:01:07;;;;;;;;;1.75;0.00;;;;;;;;5063066;28;45354;-95
2023/04/14 02:03:33;;;;;;;;;1.75;1.75;;;;;;;;5081208;28;45025;-96
2023/04/14 02:06:01;;;;;;;;;4.50;2.50;;;;;;;;5064257;28;47585;-96
2023/04/14 02:08:28;;;;;;;;;5.00;2.00;;;;;;;;5078500;28;45557;-95
2023/04/14 02:10:54;;;;;;;;;5.50;2.00;;;;;;;;5080898;28;45213;-96
2023/04/14 02:13:21;;;;;;;;;8.75;6.50;;;;;;;;5081327;28;45210;-94
2023/04/14 02:15:49;;;;;;;;;11.25;6.50;;;;;;;;5062518;28;47560;-95
2023/04/14 02:18:15;;;;;;;;;8.75;6.00;;;;;;;;5080279;28;45469;-93
2023/04/14 02:20:43;;;;;;;;;3.50;1.75;;;;;;;;5062504;28;45245;-95
2023/04/14 02:23:09;;;;;;;;;12.00;8.25;;;;;;;;5080098;28;45246;-96
2023/04/14 02:25:36;;;;;;;;;7.50;5.75;;;;;;;;5062059;28;47450;-94
2023/04/14 02:28:06;;;;;;;;;7.00;5.25;;;;;;;;5061261;28;45384;-94
2023/04/14 02:30:37;;;;;;;;;4.50;2.00;;;;;;;;5080180;28;45320;-96
2023/04/14 02:33:06;;;;;;;;;8.25;5.00;;;;;;;;5062014;28;45458;-95
2023/04/14 02:35:38;;;;;;;;;4.75;2.00;;;;;;;;5061772;28;47158;-95
2023/04/14 02:38:08;;;;;;;;;2.00;2.00;;;;;;;;5079436;28;45374;-94
2023/04/14 02:40:38;;;;;;;;;0.75;0.50;;;;;;;;5061979;28;45427;-96
2023/04/14 02:43:10;;;;;;;;;4.00;0.50;;;;;;;;5081831;27;44826;-96
2023/04/14 02:45:37;;;;;;;;;0.00;0.00;;;;;;;;5063010;28;47341;-95
2023/04/14 02:48:10;;;;;;;;;0.00;0.00;;;;;;;;5061990;28;45775;-96
2023/04/14 02:50:36;;;;;;;;;0.00;0.00;;;;;;;;5062193;28;45396;-94
2023/04/14 02:53:02;;;;;;;;;0.00;0.00;;;;;;;;5061899;28;45558;-96
2023/04/14 02:55:28;;;;;;;;;0.00;0.00;;;;;;;;5080248;28;45534;-96
2023/04/14 02:57:53;;;;;;;;;0.00;0.00;;;;;;;;5063016;28;45304;-96
2023/04/14 03:00:19;;;;;;;;;0.00;0.00;;;;;;;;5062084;28;45409;-96
2023/04/14 03:02:45;;;;;;;;;0.00;0.00;;;;;;;;5062037;28;45321;-96
2023/04/14 03:05:11;;;;;;;;;0.00;0.00;;;;;;;;5079678;28;46522;-96
2023/04/14 03:07:36;;;;;;;;;0.00;0.00;;;;;;;;5079392;28;45362;-96
2023/04/14 03:10:02;;;;;;;;;0.00;0.00;;;;;;;;5061991;28;45399;-96
2023/04/14 03:12:28;;;;;;;;;0.00;0.00;;;;;;;;5079693;28;45170;-96
2023/04/14 03:14:53;;;;;;;;;0.00;0.00;;;;;;;;5061609;28;47303;-96
2023/04/14 03:17:20;;;;;;;;;0.50;0.00;;;;;;;;5079450;28;45262;-96
2023/04/14 03:19:47;;;;;;;;;1.25;0.00;;;;;;;;5079869;28;45530;-95
2023/04/14 03:22:13;;;;;;;;;1.00;0.25;;;;;;;;5079349;28;45311;-96
2023/04/14 03:24:39;;;;;;;;;0.00;0.00;;;;;;;;5061050;28;46710;-96
2023/04/14 03:27:07;;;;;;;;;0.00;0.00;;;;;;;;5085333;28;44962;-96
2023/04/14 03:29:39;;;;;;;;;0.50;0.00;;;;;;;;5064363;28;45303;-96
2023/04/14 03:32:05;;;;;;;;;0.00;0.00;;;;;;;;5083341;28;45515;-96
2023/04/14 03:34:32;;;;;;;;;0.00;0.00;;;;;;;;5082687;28;45470;-96
2023/04/14 03:36:58;;;;;;;;;1.25;1.00;;;;;;;;5066032;28;45832;-95
2023/04/14 03:39:33;;;;;;;;;0.00;0.00;;;;;;;;5085184;28;45303;-94
2023/04/14 03:41:58;;;;;;;;;2.00;0.00;;;;;;;;5081068;28;45239;-91
2023/04/14 03:44:31;;;;;;;;;1.00;0.00;;;;;;;;5078824;28;46274;-91
2023/04/14 03:55:02;;;;;;;;;0.00;0.00;;;;;;;;5173468;22;45377;-96
2023/04/14 03:57:28;;;;;;;;;0.75;0.75;;;;;;;;5017729;28;45666;-92
2023/04/14 03:59:53;;;;;;;;;0.00;0.00;;;;;;;;5018826;28;45225;-94
2023/04/14 04:02:19;;;;;;;;;0.00;0.00;;;;;;;;5018381;28;45207;-94
2023/04/14 04:04:46;;;;;;;;;1.50;0.00;;;;;;;;5023100;28;46246;-96
2023/04/14 04:07:14;;;;;;;;;1.00;0.00;;;;;;;;5018332;28;45731;-96
2023/04/14 04:12:17;;;;;;;;;0.00;0.00;;;;;;;;5133310;22;45400;-93
2023/04/14 04:14:42;;;;;;;;;0.00;0.00;;;;;;;;5018000;28;46975;-95
2023/04/14 04:17:08;;;;;;;;;0.00;0.00;;;;;;;;5022903;28;45459;-95
2023/04/14 04:19:34;;;;;;;;;0.00;0.00;;;;;;;;5018138;28;45376;-94
2023/04/14 04:22:00;;;;;;;;;0.00;0.00;;;;;;;;5196663;22;45336;-95
2023/04/14 04:24:27;;;;;;;;;1.00;0.00;;;;;;;;5022621;28;45457;-96
2023/04/14 04:26:53;;;;;;;;;1.00;0.00;;;;;;;;5024201;28;45218;-96
2023/04/14 04:29:20;;;;;;;;;0.00;0.00;;;;;;;;5017998;28;45160;-96
2023/04/14 04:31:46;;;;;;;;;0.00;0.00;;;;;;;;5018960;28;44885;-96
2023/04/14 04:34:22;;;;;;;;;0.00;0.00;;;;;;;;5020982;28;45544;-96
2023/04/14 04:36:48;;;;;;;;;1.75;1.00;;;;;;;;5017729;28;45348;-90
2023/04/14 04:39:13;;;;;;;;;0.00;0.00;;;;;;;;5016236;28;45383;-92
2023/04/14 04:42:02;;;;;;;;;4.33;1.00;;;;;;;;5016552;28;45360;-90
2023/04/14 04:44:26;;;;;;;;;3.50;0.75;;;;;;;;5124466;22;46986;-96
2023/04/14 04:46:53;;;;;;;;;1.00;0.33;;;;;;;;5016862;28;45233;-96
2023/04/14 04:49:18;;;;;;;;;0.00;0.00;;;;;;;;5017052;28;45261;-96
2023/04/14 04:51:44;;;;;;;;;0.00;0.00;;;;;;;;5017301;28;45333;-94
2023/04/14 04:54:09;;;;;;;;;0.50;0.50;;;;;;;;5017762;28;45335;-96
2023/04/14 04:56:34;;;;;;;;;1.00;0.00;;;;;;;;5016473;28;45434;-96
2023/04/14 04:59:00;;;;;;;;;2.00;1.00;;;;;;;;5016904;28;45283;-95
2023/04/14 05:01:26;;;;;;;;;2.50;1.00;;;;;;;;5017760;28;45270;-95
2023/04/14 05:03:51;;;;;;;;;0.75;0.00;;;;;;;;5016929;28;46951;-96
2023/04/14 05:06:16;;;;;;;;;1.00;1.00;;;;;;;;5017419;28;45635;-96
2023/04/14 05:08:42;;;;;;;;;3.00;0.25;;;;;;;;5017838;28;45186;-90
2023/04/14 05:11:07;;;;;;;;;0.00;0.00;;;;;;;;5017910;28;45179;-91
2023/04/14 05:13:33;;;;;;;;;0.00;0.00;;;;;;;;5017483;28;45988;-93
2023/04/14 05:16:08;;;;;;;;;4.00;1.00;;;;;;;;5017497;28;45360;-91
2023/04/14 05:18:33;;;;;;;;;3.50;0.00;;;;;;;;5015906;28;45449;-89
2023/04/14 05:21:02;;;;;;;;;2.00;0.00;;;;;;;;5015696;28;45301;-91
2023/04/14 05:23:28;;;;;;;;;3.00;0.00;;;;;;;;5016363;28;46713;-89
2023/04/14 05:25:57;;;;;;;;;1.00;1.00;;;;;;;;5015559;28;46152;-89
2023/04/14 05:28:22;;;;;;;;;0.50;0.50;;;;;;;;5016626;28;45211;-94
2023/04/14 05:30:48;;;;;;;;;2.00;0.00;;;;;;;;5016967;28;45531;-93
2023/04/14 05:33:13;;;;;;;;;1.00;1.00;;;;;;;;5016866;28;46138;-93
2023/04/14 05:35:38;;;;;;;;;0.00;0.00;;;;;;;;5016011;28;45178;-91
2023/04/14 05:38:03;;;;;;;;;1.00;1.00;;;;;;;;5015793;28;45502;-92
2023/04/14 05:40:31;;;;;;;;;4.33;2.00;;;;;;;;5017795;28;45481;-91
2023/04/14 05:42:56;;;;;;;;;2.00;0.25;;;;;;;;5016014;28;47513;-90
2023/04/14 05:45:21;;;;;;;;;8.00;1.00;;;;;;;;5016943;28;45399;-92
2023/04/14 05:47:46;;;;;;;;;3.33;1.33;;;;;;;;4998499;28;45322;-92
2023/04/14 05:50:11;;;;;;;;;2.00;1.00;;;;;;;;4996998;28;45453;-93
2023/04/14 05:52:38;;;;;;;;;1.33;1.33;;;;;;;;4998200;28;47403;-93
2023/04/14 05:55:04;;;;;;;;;4.75;1.50;;;;;;;;4998989;28;45441;-93
2023/04/14 05:57:29;;;;;;;;;2.00;1.00;;;;;;;;5009012;28;45350;-93
2023/04/14 05:59:54;;;;;;;;;2.67;0.67;;;;;;;;5002725;28;45273;-84
2023/04/14 06:02:19;;;;;;;;;4.33;1.00;;;;;;;;5007886;28;47917;-92
2023/04/14 06:04:44;;;;;;;;;1.00;1.00;;;;;;;;5011146;28;44679;-90
2023/04/14 06:07:10;;;;;;;;;1.67;0.33;;;;;;;;5025352;28;45197;-87
2023/04/14 06:09:37;;;;;;;;;5.00;2.00;;;;;;;;5034209;28;45443;-94
2023/04/14 06:12:03;;;;;;;;;2.00;2.00;;;;;;;;5037850;28;46256;-93
2023/04/14 06:14:28;;;;;;;;;1.50;1.50;;;;;;;;5035747;28;44777;-93
2023/04/14 06:16:53;;;;;;;;;0.00;0.00;;;;;;;;5032833;28;45297;-93
2023/04/14 06:19:18;;;;;;;;;3.25;1.50;;;;;;;;5023879;28;45361;-93
2023/04/14 06:21:44;;;;;;;;;1.00;1.00;;;;;;;;5020149;28;45529;-93
2023/04/14 06:24:09;;;;;;;;;4.25;3.25;;;;;;;;5019942;28;45543;-93
2023/04/14 06:26:35;;;;;;;;;4.25;1.75;;;;;;;;5019020;28;45549;-93
2023/04/14 06:29:01;;;;;;;;;2.00;2.00;;;;;;;;5018897;28;45416;-93
2023/04/14 06:31:26;;;;;;;;;0.00;0.00;;;;;;;;5018849;28;46921;-93
2023/04/14 06:33:52;;;;;;;;;1.00;1.00;;;;;;;;5018815;28;45345;-93
2023/04/14 06:36:17;;;;;;;;;3.50;2.00;;;;;;;;5019922;28;45261;-91
2023/04/14 06:38:42;;;;;;;;;4.00;1.00;;;;;;;;5020185;28;45465;-95
2023/04/14 06:41:08;;;;;;;;;1.00;1.00;;;;;;;;5019808;28;47168;-89
2023/04/14 06:43:33;;;;;;;;;2.67;1.67;;;;;;;;5019923;28;45403;-93
2023/04/14 06:45:58;;;;;;;;;1.00;1.00;;;;;;;;5018889;28;45561;-93
2023/04/14 06:48:24;;;;;;;;;3.00;2.00;;;;;;;;5018718;28;45338;-94
2023/04/14 06:50:54;;;;;;;;;4.75;2.50;;;;;;;;5019443;28;45692;-94
2023/04/14 06:53:20;;;;;;;;;4.00;1.25;;;;;;;;5022281;28;45415;-94
2023/04/14 06:55:45;;;;;;;;;6.00;1.00;;;;;;;;5021333;28;45447;-94
2023/04/14 06:58:10;;;;;;;;;5.00;2.00;;;;;;;;5019134;28;45296;-93
2023/04/14 07:00:35;;;;;;;;;6.00;2.00;;;;;;;;5018658;28;48186;-94
2023/04/14 07:03:01;;;;;;;;;5.00;4.00;;;;;;;;5019663;28;45316;-95
2023/04/14 07:05:26;;;;;;;;;5.00;2.67;;;;;;;;5018385;28;45589;-94
2023/04/14 07:07:51;;;;;;;;;2.00;2.00;;;;;;;;5019448;28;45249;-95
2023/04/14 07:10:17;;;;;;;;;5.50;2.50;;;;;;;;5020014;28;45333;-94
2023/04/14 07:12:42;;;;;;;;;4.50;4.50;;;;;;;;5018268;28;45556;-89
2023/04/14 07:15:08;;;;;;;;;9.00;4.67;;;;;;;;5015506;28;45348;-91
2023/04/14 07:17:34;;;;;;;;;3.25;3.25;;;;;;;;5018107;28;45363;-94
2023/04/14 07:20:00;;;;;;;;;10.25;3.25;;;;;;;;5019397;28;48254;-93
2023/04/14 07:22:25;;;;;;;;;5.00;4.50;;;;;;;;5018990;28;45289;-92
2023/04/14 07:24:52;;;;;;;;;9.00;4.67;;;;;;;;5017842;28;45359;-92
2023/04/14 07:27:17;;;;;;;;;5.00;2.25;;;;;;;;5018662;28;45491;-92
2023/04/14 07:29:43;;;;;;;;;5.33;4.67;;;;;;;;5018567;28;47076;-90
2023/04/14 07:32:08;;;;;;;;;9.33;5.00;;;;;;;;5017879;28;45328;-92
2023/04/14 07:34:33;;;;;;;;;5.50;5.00;;;;;;;;5017749;28;45254;-93
2023/04/14 07:36:59;;;;;;;;;3.00;2.00;;;;;;;;5018718;28;45189;-94
2023/04/14 07:39:24;;;;;;;;;10.50;5.75;;;;;;;;5018452;28;46270;-92
2023/04/14 07:41:50;;;;;;;;;3.33;3.33;;;;;;;;5018531;28;45376;-93
2023/04/14 07:44:15;;;;;;;;;4.25;3.75;;;;;;;;5018962;28;45404;-92
2023/04/14 07:46:40;;;;;;;;;4.67;3.33;;;;;;;;5018450;28;45303;-93
2023/04/14 07:49:05;;;;;;;;;3.67;3.67;;;;;;;;5018211;28;46438;-94
2023/04/14 07:51:31;;;;;;;;;5.67;5.00;;;;;;;;5016915;28;45726;-92
2023/04/14 07:53:57;;;;;;;;;7.50;3.50;;;;;;;;5018467;28;45348;-94
2023/04/14 07:56:22;;;;;;;;;5.25;5.25;;;;;;;;5018324;28;45385;-90
2023/04/14 07:58:48;;;;;;;;;5.25;5.00;;;;;;;;5016492;28;48289;-89
2023/04/14 08:01:13;;;;;;;;;8.00;5.00;;;;;;;;5010946;28;45536;-89
2023/04/14 08:03:39;;;;;;;;;5.00;5.00;;;;;;;;5009130;28;45511;-92
2023/04/14 08:06:05;;;;;;;;;10.50;5.00;;;;;;;;5008252;28;45444;-90
2023/04/14 08:08:30;;;;;;;;;3.00;3.00;;;;;;;;5028759;28;46362;-90
2023/04/14 08:10:56;;;;;;;;;7.00;7.00;;;;;;;;5024380;28;45410;-91
2023/04/14 08:13:21;;;;;;;;;2.75;2.75;;;;;;;;5014005;28;45667;-91
2023/04/14 08:15:46;;;;;;;;;4.33;2.33;;;;;;;;5017243;28;46149;-90
2023/04/14 08:18:11;;;;;;;;;7.67;5.00;;;;;;;;4998639;28;47026;-91
2023/04/14 08:20:37;;;;;;;;;6.33;3.00;;;;;;;;5013509;28;45337;-90
2023/04/14 08:23:02;;;;;;;;;4.00;2.25;;;;;;;;5017343;28;45382;-89
2023/04/14 08:25:27;;;;;;;;;5.75;5.00;;;;;;;;5025553;28;45435;-90
2023/04/14 08:27:53;;;;;;;;;2.00;2.00;;;;;;;;5025174;28;46949;-90
2023/04/14 08:30:18;;;;;;;;;5.67;3.00;;;;;;;;5018072;28;45252;-90
2023/04/14 08:32:43;;;;;;;;;5.00;5.00;;;;;;;;5027900;28;45284;-89
2023/04/14 08:35:08;;;;;;;;;4.33;4.33;;;;;;;;5020396;28;45312;-89
2023/04/14 08:37:34;;;;;;;;;5.00;2.67;;;;;;;;5018127;28;46906;-90
2023/04/14 08:39:59;;;;;;;;;2.00;2.00;;;;;;;;5031243;28;45359;-90
2023/04/14 08:42:25;;;;;;;;;2.25;1.75;;;;;;;;5026076;28;45502;-91
2023/04/14 08:44:52;;;;;;;;;0.75;0.00;;;;;;;;5023601;28;45300;-90
2023/04/14 08:47:20;;;;;;;;;2.00;1.00;;;;;;;;5016703;28;46735;-90
2023/04/14 08:49:51;;;;;;;;;2.75;1.00;;;;;;;;5019057;28;45653;-92
2023/04/14 08:52:20;;;;;;;;;2.50;1.25;;;;;;;;5022288;28;45466;-92
2023/04/14 08:54:47;;;;;;;;;1.50;1.50;;;;;;;;5024460;28;45583;-91
2023/04/14 08:57:16;;;;;;;;;1.50;1.50;;;;;;;;5031444;28;47174;-90
2023/04/14 08:59:41;;;;;;;;;2.00;2.00;;;;;;;;5018434;28;45324;-92
2023/04/14 09:02:08;;;;;;;;;1.50;1.00;;;;;;;;5029965;28;45376;-90
2023/04/14 09:04:34;;;;;;;;;2.00;2.00;;;;;;;;5026017;28;45573;-92
2023/04/14 09:07:01;;;;;;;;;2.00;1.25;;;;;;;;5034773;28;47254;-91
2023/04/14 09:09:27;;;;;;;;;2.50;1.00;;;;;;;;5018059;28;45785;-91
2023/04/14 09:11:53;;;;;;;;;1.00;1.00;;;;;;;;5011420;28;45620;-90
2023/04/14 09:14:19;;;;;;;;;3.50;1.00;;;;;;;;5025203;28;45546;-90
2023/04/14 09:16:47;;;;;;;;;3.00;1.00;;;;;;;;5024850;28;45482;-89
2023/04/14 09:19:14;;;;;;;;;3.00;2.00;;;;;;;;5031933;28;45440;-90
2023/04/14 09:21:39;;;;;;;;;2.00;1.00;;;;;;;;5005100;28;45400;-90
2023/04/14 09:24:05;;;;;;;;;3.25;1.25;;;;;;;;5019666;28;45325;-90
2023/04/14 09:26:30;;;;;;;;;0.00;0.00;;;;;;;;5015038;28;47303;-94
2023/04/14 09:28:55;;;;;;;;;2.00;2.00;;;;;;;;5020349;28;45341;-94
2023/04/14 09:31:21;;;;;;;;;6.00;1.00;;;;;;;;5015685;28;45395;-92
2023/04/14 09:33:48;;;;;;;;;1.50;1.50;;;;;;;;5019498;28;45582;-90
2023/04/14 09:36:20;;;;;;;;;2.00;1.50;;;;;;;;5028335;28;46380;-89
2023/04/14 09:38:46;;;;;;;;;1.50;1.00;;;;;;;;5019606;28;45184;-91
2023/04/14 09:41:15;;;;;;;;;1.00;1.00;;;;;;;;5019296;28;45257;-92
2023/04/14 09:43:41;;;;;;;;;2.50;1.00;;;;;;;;5018978;28;45364;-92
2023/04/14 09:46:08;;;;;;;;;2.00;2.00;;;;;;;;5018265;28;46959;-90
2023/04/14 09:48:34;;;;;;;;;2.00;1.00;;;;;;;;5032778;28;45312;-91
2023/04/14 09:51:08;;;;;;;;;1.00;1.00;;;;;;;;5026311;28;45274;-92
2023/04/14 09:53:34;;;;;;;;;0.25;0.25;;;;;;;;5036971;28;45411;-90
2023/04/14 09:56:01;;;;;;;;;1.00;1.00;;;;;;;;5021651;28;45385;-92
2023/04/14 09:58:39;;;;;;;;;1.50;0.25;;;;;;;;5020815;28;45453;-91
2023/04/14 10:01:09;;;;;;;;;1.00;1.00;;;;;;;;5052251;28;45348;-92
2023/04/14 10:03:36;;;;;;;;;4.50;1.00;;;;;;;;5035241;28;45498;-90
2023/04/14 10:06:03;;;;;;;;;0.00;0.00;;;;;;;;5032929;28;47099;-88
2023/04/14 10:08:36;;;;;;;;;1.75;1.00;;;;;;;;5027458;28;45337;-88
2023/04/14 10:11:21;;;;;;;;;1.00;1.00;;;;;;;;5023621;28;45692;-87
2023/04/14 10:13:48;;;;;;;;;1.00;1.00;;;;;;;;5020165;28;45504;-90
2023/04/14 10:16:14;;;;;;;;;2.00;1.00;;;;;;;;5029895;28;48125;-87
2023/04/14 10:18:39;;;;;;;;;1.00;0.25;;;;;;;;5022745;28;45782;-88
2023/04/14 10:21:05;;;;;;;;;3.00;1.00;;;;;;;;5019157;28;45324;-84
2023/04/14 10:23:30;;;;;;;;;0.75;0.00;;;;;;;;5015524;28;45494;-87
2023/04/14 10:25:56;;;;;;;;;2.50;1.00;;;;;;;;5023004;28;45419;-87
2023/04/14 10:28:22;;;;;;;;;2.00;1.00;;;;;;;;5029032;28;45327;-86
2023/04/14 10:30:48;;;;;;;;;1.75;1.00;;;;;;;;5016783;28;45344;-85
2023/04/14 10:33:13;;;;;;;;;1.00;1.00;;;;;;;;5027243;28;45401;-89
2023/04/14 10:35:41;;;;;;;;;1.00;1.00;;;;;;;;5016483;28;47066;-86
2023/04/14 10:38:07;;;;;;;;;2.00;0.00;;;;;;;;5017523;28;45829;-86
2023/04/14 10:40:45;;;;;;;;;2.50;1.50;;;;;;;;5026819;28;45316;-86
2023/04/14 10:43:12;;;;;;;;;0.00;0.00;;;;;;;;5029351;28;45487;-85
2023/04/14 10:45:55;;;;;;;;;1.50;1.25;;;;;;;;5019384;28;47189;-88
2023/04/14 10:48:24;;;;;;;;;0.00;0.00;;;;;;;;5015731;28;45389;-88
2023/04/14 10:50:53;;;;;;;;;0.25;0.00;;;;;;;;5017369;28;45270;-90
2023/04/14 10:53:18;;;;;;;;;1.25;0.00;;;;;;;;5030595;28;45307;-86
2023/04/14 10:55:45;;;;;;;;;0.00;0.00;;;;;;;;5007742;28;46823;-86
2023/04/14 10:58:16;;;;;;;;;1.00;0.00;;;;;;;;5031587;28;45513;-85
2023/04/14 11:00:42;;;;;;;;;0.00;0.00;;;;;;;;5013264;28;45327;-88
2023/04/14 11:03:09;;;;;;;;;2.00;0.25;;;;;;;;5023968;28;45622;-89
2023/04/14 11:05:34;;;;;;;;;0.00;0.00;;;;;;;;5026930;28;46654;-86
2023/04/14 11:08:10;;;;;;;;;0.00;0.00;;;;;;;;5027753;28;45505;-88
2023/04/14 11:10:35;;;;;;;;;1.50;1.00;;;;;;;;5027070;28;45433;-91
2023/04/14 11:13:02;;;;;;;;;0.75;0.75;;;;;;;;5018554;28;45407;-91
2023/04/14 11:15:51;;;;;;;;;1.00;0.00;;;;;;;;5018168;28;47942;-90
2023/04/14 11:18:32;;;;;;;;;1.00;1.00;;;;;;;;5027487;28;45519;-89
2023/04/14 11:21:05;;;;;;;;;1.25;0.00;;;;;;;;5023452;28;45353;-93
2023/04/14 11:23:31;;;;;;;;;0.25;0.00;;;;;;;;5020561;28;45367;-89
2023/04/14 11:25:57;;;;;;;;;1.00;1.00;;;;;;;;5033163;28;46323;-93
2023/04/14 11:28:41;;;;;;;;;5.75;0.75;;;;;;;;5026932;28;45261;-91
2023/04/14 11:31:07;;;;;;;;;2.00;1.00;;;;;;;;5024060;28;45645;-94
2023/04/14 11:33:34;;;;;;;;;1.50;1.00;;;;;;;;5029265;28;45506;-94
2023/04/14 11:36:00;;;;;;;;;1.50;0.75;;;;;;;;5034706;28;45510;-91
2023/04/14 11:38:26;;;;;;;;;1.75;0.00;;;;;;;;5032676;28;45310;-92
2023/04/14 11:40:51;;;;;;;;;2.00;0.50;;;;;;;;5026190;28;45294;-92
2023/04/14 11:43:16;;;;;;;;;1.50;0.00;;;;;;;;5007334;28;45144;-90
2023/04/14 11:45:42;;;;;;;;;1.67;0.00;;;;;;;;5020792;28;45454;-93
2023/04/14 11:48:09;;;;;;;;;1.00;1.00;;;;;;;;5025286;28;45423;-94
2023/04/14 11:50:37;;;;;;;;;2.00;0.00;;;;;;;;5016956;28;45312;-91
2023/04/14 11:53:07;;;;;;;;;3.50;0.00;;;;;;;;5020562;28;45494;-90
2023/04/14 11:55:33;;;;;;;;;0.25;0.00;;;;;;;;5020040;28;46188;-90
2023/04/14 11:57:59;;;;;;;;;0.25;0.25;;;;;;;;5023830;28;45650;-85
2023/04/14 12:00:26;;;;;;;;;1.00;0.00;;;;;;;;5015613;28;45369;-89
2023/04/14 12:02:51;;;;;;;;;0.75;0.00;;;;;;;;5027605;28;45578;-93
2023/04/14 12:05:18;;;;;;;;;1.00;0.00;;;;;;;;5018440;28;46328;-90
2023/04/14 12:07:44;;;;;;;;;0.75;0.00;;;;;;;;5020491;28;45673;-92
2023/04/14 12:10:10;;;;;;;;;1.00;1.00;;;;;;;;5024908;28;45408;-88
2023/04/14 12:12:35;;;;;;;;;0.00;0.00;;;;;;;;5027279;28;45605;-88
2023/04/14 12:15:00;;;;;;;;;0.33;0.00;;;;;;;;5016826;28;48914;-94
2023/04/14 12:17:25;;;;;;;;;1.25;0.00;;;;;;;;5024050;28;45396;-89
2023/04/14 12:19:51;;;;;;;;;0.75;0.75;;;;;;;;5021059;28;45222;-86
2023/04/14 12:22:23;;;;;;;;;0.00;0.00;;;;;;;;5025267;28;45260;-91
2023/04/14 12:24:48;;;;;;;;;1.00;1.00;;;;;;;;5024686;28;47223;-90
2023/04/14 12:27:17;;;;;;;;;0.67;0.67;;;;;;;;5008503;28;45487;-89
2023/04/14 12:29:42;;;;;;;;;1.00;1.00;;;;;;;;5015913;28;46003;-90
2023/04/14 12:32:11;;;;;;;;;0.00;0.00;;;;;;;;5011905;28;45379;-94
2023/04/14 12:34:36;;;;;;;;;2.00;0.00;;;;;;;;5021286;28;47883;-91
2023/04/14 12:37:06;;;;;;;;;5.75;0.00;;;;;;;;5018926;28;45609;-89
2023/04/14 12:39:31;;;;;;;;;0.00;0.00;;;;;;;;5006816;28;45463;-87
2023/04/14 12:41:59;;;;;;;;;1.33;0.33;;;;;;;;5020604;28;45507;-89
2023/04/14 12:44:25;;;;;;;;;0.00;0.00;;;;;;;;5023373;28;47477;-85
2023/04/14 12:46:51;;;;;;;;;1.00;1.00;;;;;;;;5015768;28;45490;-92
2023/04/14 12:49:35;;;;;;;;;0.00;0.00;;;;;;;;5031824;28;45397;-95
2023/04/14 12:52:01;;;;;;;;;0.00;0.00;;;;;;;;5031851;28;45500;-86
2023/04/14 12:54:43;;;;;;;;;1.00;0.00;;;;;;;;5025753;28;47223;-90
2023/04/14 12:57:08;;;;;;;;;0.00;0.00;;;;;;;;5030758;28;45295;-95
2023/04/14 12:59:38;;;;;;;;;1.00;1.00;;;;;;;;5015452;28;45481;-85
2023/04/14 13:02:03;;;;;;;;;0.00;0.00;;;;;;;;5014458;28;45507;-87
2023/04/14 13:04:28;;;;;;;;;2.33;0.00;;;;;;;;5013108;28;46857;-87
2023/04/14 13:06:53;;;;;;;;;0.00;0.00;;;;;;;;5028591;28;45398;-88
2023/04/14 13:09:18;;;;;;;;;0.00;0.00;;;;;;;;5032871;28;45560;-91
2023/04/14 13:11:43;;;;;;;;;0.00;0.00;;;;;;;;5028860;28;45371;-89
2023/04/14 13:14:09;;;;;;;;;0.33;0.33;;;;;;;;5026257;28;45961;-89
2023/04/14 13:16:34;;;;;;;;;0.00;0.00;;;;;;;;5028982;28;45366;-89
2023/04/14 13:18:59;;;;;;;;;0.00;0.00;;;;;;;;5027868;28;45521;-89
2023/04/14 13:21:24;;;;;;;;;0.00;0.00;;;;;;;;5017578;28;45451;-89
2023/04/14 13:23:50;;;;;;;;;0.00;0.00;;;;;;;;5022782;28;48162;-90
2023/04/14 13:26:15;;;;;;;;;0.00;0.00;;;;;;;;5019341;28;45932;-90
2023/04/14 13:28:40;;;;;;;;;1.33;0.00;;;;;;;;5021322;28;45748;-89
2023/04/14 13:31:06;;;;;;;;;0.00;0.00;;;;;;;;5033427;28;45371;-92
2023/04/14 13:33:31;;;;;;;;;0.00;0.00;;;;;;;;5007972;28;47126;-83
2023/04/14 13:35:56;;;;;;;;;0.00;0.00;;;;;;;;5015751;28;45453;-80
2023/04/14 13:38:21;;;;;;;;;0.00;0.00;;;;;;;;5014623;28;45466;-81
2023/04/14 13:40:47;;;;;;;;;0.00;0.00;;;;;;;;5016795;28;45317;-82
2023/04/14 13:43:14;;;;;;;;;0.33;0.00;;;;;;;;5009493;28;46262;-80
2023/04/14 13:45:39;;;;;;;;;1.50;0.25;;;;;;;;5004356;28;45917;-79
2023/04/14 13:48:04;;;;;;;;;1.67;1.00;;;;;;;;5010419;28;45416;-82
2023/04/14 13:50:30;;;;;;;;;2.00;0.00;;;;;;;;5010300;28;45443;-81
2023/04/14 13:52:55;;;;;;;;;2.00;0.00;;;;;;;;5016516;28;46406;-80
2023/04/14 13:55:20;;;;;;;;;2.00;1.00;;;;;;;;5013452;28;45521;-81
2023/04/14 13:57:45;;;;;;;;;1.67;0.00;;;;;;;;5004406;28;45441;-81
2023/04/14 14:00:11;;;;;;;;;1.00;1.00;;;;;;;;5016188;28;45619;-81
2023/04/14 14:02:40;;;;;;;;;1.00;0.25;;;;;;;;5015597;28;46937;-81
2023/04/14 14:05:06;;;;;;;;;0.50;0.25;;;;;;;;5016989;28;45710;-80
2023/04/14 14:07:32;;;;;;;;;0.00;0.00;;;;;;;;5012596;28;45434;-81
2023/04/14 14:09:57;;;;;;;;;0.00;0.00;;;;;;;;5016717;28;45626;-80
2023/04/14 14:12:22;;;;;;;;;0.00;0.00;;;;;;;;5016926;28;46248;-79
2023/04/14 14:14:47;;;;;;;;;0.00;0.00;;;;;;;;5015211;28;45618;-82
2023/04/14 14:17:12;;;;;;;;;0.67;0.00;;;;;;;;5014829;28;45915;-81
2023/04/14 14:19:38;;;;;;;;;1.00;0.00;;;;;;;;5014297;28;45336;-81
2023/04/14 14:22:04;;;;;;;;;0.00;0.00;;;;;;;;5008158;28;47357;-84
2023/04/14 14:24:29;;;;;;;;;0.00;0.00;;;;;;;;5012848;28;45601;-82
2023/04/14 14:26:55;;;;;;;;;0.00;0.00;;;;;;;;5014121;28;45462;-83
2023/04/14 14:29:21;;;;;;;;;0.00;0.00;;;;;;;;5015318;28;45478;-83
2023/04/14 14:31:46;;;;;;;;;0.75;0.00;;;;;;;;5012518;28;45546;-83
2023/04/14 14:34:11;;;;;;;;;0.00;0.00;;;;;;;;5005622;28;45837;-84
2023/04/14 14:36:36;;;;;;;;;0.00;0.00;;;;;;;;5015064;28;45604;-83
2023/04/14 14:39:02;;;;;;;;;0.00;0.00;;;;;;;;5009400;28;45842;-83
2023/04/14 14:41:27;;;;;;;;;0.50;0.00;;;;;;;;5016111;28;46214;-83
2023/04/14 14:43:52;;;;;;;;;0.00;0.00;;;;;;;;5019118;28;45535;-84
2023/04/14 14:46:17;;;;;;;;;0.00;0.00;;;;;;;;5015616;28;45528;-83
2023/04/14 14:48:43;;;;;;;;;0.75;0.00;;;;;;;;5007128;28;45518;-83
2023/04/14 14:51:08;;;;;;;;;0.00;0.00;;;;;;;;5016009;28;45476;-83